Аэропорт: Брест-2. Брест

ICAO: UMBB

METAR:
2019/03/24 13:30
UMBB 241330Z 33006G09MPS 9000 NSC 11/M04 Q1019 R29/CLRD// NOSIG
METAR:
2018/08/29 12:21
TAF UMBB 291405Z 2912/2924 34005MPS 6000 BKN015 
      TEMPO 2915/2918 3000 -SHRA SCT020CB 
      TEMPO 2918/2924 2000 BR BKN005